createdAt,value
2022-10-14T00:02:22.567Z,18.55
2022-10-14T00:04:49.689Z,17.35
2022-10-14T00:07:16.119Z,17.48
2022-10-14T00:09:42.786Z,17.10
2022-10-14T00:12:09.639Z,17.50
2022-10-14T00:14:36.109Z,17.40
2022-10-14T00:17:02.513Z,13.45
2022-10-14T00:19:28.906Z,12.45
2022-10-14T00:21:55.751Z,14.93
2022-10-14T00:24:22.385Z,13.80
2022-10-14T00:26:48.937Z,13.95
2022-10-14T00:29:18.789Z,11.65
2022-10-14T00:31:46.251Z,12.98
2022-10-14T00:34:16.035Z,12.57
2022-10-14T00:36:43.282Z,13.27
2022-10-14T00:39:14.934Z,11.00
2022-10-14T00:41:42.024Z,10.93
2022-10-14T00:44:28.350Z,12.52
2022-10-14T00:46:56.118Z,11.68
2022-10-14T00:49:33.704Z,15.60
2022-10-14T00:52:10.884Z,14.40
2022-10-14T00:54:43.901Z,10.30
2022-10-14T00:57:11.396Z,15.57
2022-10-14T00:59:38.492Z,11.50
2022-10-14T01:02:05.398Z,10.50
2022-10-14T01:04:34.009Z,14.15
2022-10-14T01:07:20.260Z,12.20
2022-10-14T01:10:26.225Z,13.77
2022-10-14T01:12:58.556Z,12.23
2022-10-14T01:15:40.935Z,12.48
2022-10-14T01:18:35.068Z,14.82
2022-10-14T01:21:11.454Z,18.98
2022-10-14T01:23:53.510Z,13.18
2022-10-14T01:26:34.995Z,16.08
2022-10-14T01:29:19.865Z,14.65
2022-10-14T01:31:57.422Z,13.65
2022-10-14T01:34:30.832Z,15.07
2022-10-14T01:37:08.396Z,15.20
2022-10-14T01:39:41.291Z,13.68
2022-10-14T01:42:11.980Z,15.00
2022-10-14T01:44:46.019Z,16.55
2022-10-14T01:47:16.708Z,12.48
2022-10-14T01:49:47.238Z,16.67
2022-10-14T01:52:20.193Z,12.50
2022-10-14T01:54:51.194Z,11.85
2022-10-14T01:57:23.520Z,10.35
2022-10-14T01:59:53.148Z,11.80
2022-10-14T02:02:20.013Z,14.32
2022-10-14T02:04:46.828Z,9.77
2022-10-14T02:07:25.035Z,13.45
2022-10-14T02:10:00.526Z,12.00
2022-10-14T02:12:39.177Z,11.10
2022-10-14T02:15:19.673Z,12.23
2022-10-14T02:17:57.666Z,7.97
2022-10-14T02:21:03.351Z,10.40
2022-10-14T02:23:46.521Z,7.55
2022-10-14T02:26:13.848Z,11.70
2022-10-14T02:28:41.262Z,7.50
2022-10-14T02:31:13.772Z,8.75
2022-10-14T02:33:47.357Z,8.05
2022-10-14T02:36:19.315Z,9.45
2022-10-14T02:38:47.384Z,10.85
2022-10-14T02:41:17.582Z,15.95
2022-10-14T02:43:45.201Z,9.23
2022-10-14T02:46:13.062Z,6.00
2022-10-14T02:48:40.357Z,10.35
2022-10-14T02:51:06.739Z,8.27
2022-10-14T02:53:33.154Z,6.82
2022-10-14T02:55:59.967Z,6.75
2022-10-14T02:58:26.432Z,7.00
2022-10-14T03:00:56.059Z,6.95
2022-10-14T03:03:22.489Z,7.05
2022-10-14T03:05:49.056Z,9.25
2022-10-14T03:08:16.379Z,13.95
2022-10-14T03:10:47.634Z,7.20
2022-10-14T03:13:15.285Z,6.00
2022-10-14T03:15:49.467Z,8.23
2022-10-14T03:18:17.634Z,4.53
2022-10-14T03:20:47.006Z,5.53
2022-10-14T03:23:18.714Z,6.78
2022-10-14T03:25:48.728Z,7.18
2022-10-14T03:28:21.266Z,8.57
2022-10-14T03:31:07.794Z,5.90
2022-10-14T03:34:03.749Z,7.45
2022-10-14T03:36:31.194Z,9.25
2022-10-14T03:38:57.874Z,12.43
2022-10-14T03:41:47.261Z,6.93
2022-10-14T03:44:16.953Z,9.07
2022-10-14T03:47:03.192Z,6.43
2022-10-14T03:49:32.440Z,5.25
2022-10-14T03:52:04.643Z,8.73
2022-10-14T03:54:34.134Z,5.82
2022-10-14T03:57:00.865Z,8.30
2022-10-14T03:59:31.307Z,4.68
2022-10-14T04:01:58.187Z,7.13
2022-10-14T04:04:25.500Z,7.63
2022-10-14T04:06:51.971Z,7.85
2022-10-14T04:09:20.883Z,11.20
2022-10-14T04:11:47.667Z,6.80
2022-10-14T04:14:32.568Z,9.02
2022-10-14T04:16:59.427Z,6.57
2022-10-14T04:19:27.276Z,8.77
2022-10-14T04:21:54.259Z,9.25
2022-10-14T04:24:23.567Z,9.05
2022-10-14T04:26:57.194Z,7.75
2022-10-14T04:29:37.808Z,6.32
2022-10-14T04:32:11.946Z,6.78
2022-10-14T04:34:38.695Z,9.07
2022-10-14T04:37:06.978Z,7.35
2022-10-14T04:39:56.975Z,7.60
2022-10-14T04:42:23.760Z,8.18
2022-10-14T04:47:28.664Z,5.50
2022-10-14T04:49:58.986Z,8.43
2022-10-14T04:52:27.282Z,9.95
2022-10-14T04:55:00.251Z,7.45
2022-10-14T04:57:35.651Z,7.65
2022-10-14T05:00:04.466Z,6.95
2022-10-14T05:02:49.526Z,8.00
2022-10-14T05:05:16.876Z,6.47
2022-10-14T05:07:46.761Z,6.83
2022-10-14T05:10:33.302Z,6.63
2022-10-14T05:13:01.908Z,5.90
2022-10-14T05:15:32.216Z,6.53
2022-10-14T05:18:05.581Z,8.32
2022-10-14T05:20:58.755Z,7.43
2022-10-14T05:23:29.896Z,9.75
2022-10-14T05:25:57.233Z,9.15
2022-10-14T05:28:24.433Z,6.18
2022-10-14T05:30:50.973Z,9.95
2022-10-14T05:33:18.667Z,7.72
2022-10-14T05:35:58.645Z,10.25
2022-10-14T05:38:28.200Z,10.02
2022-10-14T05:40:56.037Z,10.95
2022-10-14T05:43:29.354Z,9.10
2022-10-14T05:45:59.167Z,10.18
2022-10-14T05:48:28.439Z,8.38
2022-10-14T05:50:55.620Z,13.70
2022-10-14T05:53:24.683Z,9.88
2022-10-14T05:56:01.618Z,9.77
2022-10-14T05:58:28.015Z,9.45
2022-10-14T06:00:55.103Z,9.15
2022-10-14T06:03:21.711Z,9.30
2022-10-14T06:05:49.973Z,8.02
2022-10-14T06:08:16.443Z,10.93
2022-10-14T06:10:44.128Z,9.68
2022-10-14T06:13:10.499Z,11.23
2022-10-14T06:15:38.855Z,11.55
2022-10-14T06:18:05.777Z,15.10
2022-10-14T06:20:32.804Z,16.67
2022-10-14T06:23:00.224Z,14.70
2022-10-14T06:25:27.083Z,15.68
2022-10-14T06:27:53.479Z,15.20
2022-10-14T06:30:19.946Z,15.68
2022-10-14T06:32:46.461Z,16.98
2022-10-14T06:35:13.207Z,15.63
2022-10-14T06:37:39.583Z,18.67
2022-10-14T06:40:06.344Z,21.95
2022-10-14T06:42:33.934Z,20.92
2022-10-14T06:45:00.333Z,19.65
2022-10-14T06:47:26.776Z,25.98
2022-10-14T06:49:53.209Z,21.05
2022-10-14T06:52:19.797Z,20.88
2022-10-14T06:54:48.439Z,26.88
2022-10-14T06:57:15.135Z,28.90
2022-10-14T06:59:41.525Z,33.15
2022-10-14T07:02:09.640Z,30.88
2022-10-14T07:04:36.167Z,34.70
2022-10-14T07:07:03.247Z,31.88
2022-10-14T07:09:29.653Z,28.52
2022-10-14T07:11:56.205Z,27.75
2022-10-14T07:14:22.671Z,33.47
2022-10-14T07:16:49.263Z,32.92
2022-10-14T07:19:15.694Z,28.23
2022-10-14T07:21:42.840Z,29.67
2022-10-14T07:24:09.585Z,31.80
2022-10-14T07:26:36.006Z,29.98
2022-10-14T07:29:04.723Z,32.28
2022-10-14T07:31:31.558Z,28.98
2022-10-14T07:33:59.607Z,28.75
2022-10-14T07:36:26.123Z,28.83
2022-10-14T07:38:52.728Z,30.38
2022-10-14T07:41:22.632Z,33.70
2022-10-14T07:43:51.388Z,28.40
2022-10-14T07:46:28.872Z,29.60
2022-10-14T07:49:12.661Z,32.90
2022-10-14T07:51:40.637Z,25.90
2022-10-14T07:54:11.567Z,28.88
2022-10-14T07:56:40.250Z,28.45
2022-10-14T07:59:07.064Z,25.60
2022-10-14T08:01:33.839Z,28.63
2022-10-14T08:04:00.370Z,31.42
2022-10-14T08:06:26.969Z,36.72
2022-10-14T08:08:53.690Z,29.98
2022-10-14T08:11:25.912Z,27.75
2022-10-14T08:13:52.959Z,31.42
2022-10-14T08:16:26.799Z,28.33
2022-10-14T08:18:55.223Z,28.63
2022-10-14T08:21:21.650Z,30.52
2022-10-14T08:23:48.608Z,26.80
2022-10-14T08:26:33.760Z,27.85
2022-10-14T08:29:01.959Z,25.67
2022-10-14T08:31:28.493Z,24.15
2022-10-14T08:33:54.943Z,24.08
2022-10-14T08:36:22.053Z,30.45
2022-10-14T08:38:50.771Z,26.90
2022-10-14T08:41:26.381Z,26.33
2022-10-14T08:43:58.546Z,23.67
2022-10-14T08:46:37.705Z,23.77
2022-10-14T08:49:33.087Z,25.88
2022-10-14T08:52:06.539Z,32.53
2022-10-14T08:54:45.748Z,29.77
2022-10-14T08:57:16.745Z,27.25
2022-10-14T08:59:43.867Z,27.23
2022-10-14T09:02:36.520Z,25.10
2022-10-14T09:05:04.496Z,27.15
2022-10-14T09:07:33.310Z,26.63
2022-10-14T09:10:07.484Z,23.63
2022-10-14T09:12:35.609Z,27.98
2022-10-14T09:15:06.334Z,25.50
2022-10-14T09:17:48.842Z,24.50
2022-10-14T09:20:17.361Z,26.63
2022-10-14T09:22:46.241Z,26.80
2022-10-14T09:25:15.454Z,23.58
2022-10-14T09:27:42.674Z,25.20
2022-10-14T09:30:14.635Z,27.83
2022-10-14T09:32:44.708Z,21.58
2022-10-14T09:35:16.622Z,22.08
2022-10-14T09:37:43.023Z,25.08
2022-10-14T09:40:29.778Z,29.33
2022-10-14T09:43:10.368Z,27.92
2022-10-14T09:46:03.042Z,40.25
2022-10-14T09:48:46.281Z,48.90
2022-10-14T09:51:23.167Z,45.13
2022-10-14T09:53:53.200Z,43.70
2022-10-14T09:56:48.055Z,55.33
2022-10-14T09:59:20.320Z,46.67
2022-10-14T10:01:52.947Z,25.73
2022-10-14T10:04:31.498Z,25.85
2022-10-14T10:06:59.986Z,20.83
2022-10-14T10:09:26.916Z,19.40
2022-10-14T10:11:53.825Z,18.75
2022-10-14T10:14:32.398Z,16.45
2022-10-14T10:17:08.082Z,17.50
2022-10-14T10:19:37.155Z,19.52
2022-10-14T10:22:26.365Z,17.15
2022-10-14T10:25:13.707Z,17.15
2022-10-14T10:27:48.733Z,17.60
2022-10-14T10:30:15.211Z,21.48
2022-10-14T10:33:06.775Z,17.15
2022-10-14T10:35:52.265Z,19.90
2022-10-14T10:38:52.896Z,18.08
2022-10-14T10:41:31.475Z,20.83
2022-10-14T10:44:28.423Z,16.67
2022-10-14T10:47:16.840Z,14.80
2022-10-14T10:50:08.581Z,16.40
2022-10-14T10:53:10.401Z,14.02
2022-10-14T10:58:35.388Z,13.70
2022-10-14T11:01:16.390Z,16.98
2022-10-14T11:04:07.611Z,16.27
2022-10-14T11:07:02.663Z,14.63
2022-10-14T11:10:05.017Z,14.85
2022-10-14T11:13:06.674Z,16.70
2022-10-14T11:15:33.162Z,17.02
2022-10-14T11:18:08.706Z,17.95
2022-10-14T11:20:47.668Z,14.52
2022-10-14T11:23:14.079Z,13.60
2022-10-14T11:26:11.358Z,17.10
2022-10-14T11:29:04.891Z,13.15
2022-10-14T11:31:51.412Z,11.13
2022-10-14T11:34:42.004Z,12.10
2022-10-14T11:37:51.007Z,14.95
2022-10-14T11:40:26.406Z,17.50
2022-10-14T11:43:06.640Z,14.90
2022-10-14T11:45:54.255Z,13.80
2022-10-14T11:48:27.547Z,14.57
2022-10-14T11:51:10.978Z,18.25
2022-10-14T11:53:54.566Z,13.48
2022-10-14T11:56:39.284Z,15.25
2022-10-14T11:59:31.806Z,16.58
2022-10-14T12:02:20.900Z,17.58
2022-10-14T12:04:56.042Z,25.63
2022-10-14T12:07:29.471Z,16.60
2022-10-14T12:10:04.668Z,23.13
2022-10-14T12:12:34.229Z,15.32
2022-10-14T12:15:05.799Z,20.65
2022-10-14T12:17:42.680Z,16.92
2022-10-14T12:20:32.187Z,20.10
2022-10-14T12:23:00.745Z,19.17
2022-10-14T12:25:36.652Z,19.35
2022-10-14T12:28:03.792Z,18.17
2022-10-14T12:31:14.967Z,16.63
2022-10-14T12:34:15.504Z,20.38
2022-10-14T12:36:46.819Z,22.33
2022-10-14T12:39:19.407Z,19.88
2022-10-14T12:41:54.910Z,18.95
2022-10-14T12:44:26.239Z,18.48
2022-10-14T12:46:53.317Z,17.27
2022-10-14T12:49:31.921Z,16.48
2022-10-14T12:52:05.602Z,12.93
2022-10-14T12:54:34.310Z,13.07
2022-10-14T12:57:03.543Z,14.80
2022-10-14T12:59:36.420Z,17.20
2022-10-14T13:02:22.062Z,17.08
2022-10-14T13:04:55.059Z,15.65
2022-10-14T13:07:42.744Z,15.00
2022-10-14T13:10:50.210Z,14.00
2022-10-14T13:13:38.406Z,12.15
2022-10-14T13:16:06.351Z,13.07
2022-10-14T13:18:38.955Z,10.30
2022-10-14T13:21:08.064Z,15.52
2022-10-14T13:23:47.759Z,9.48
2022-10-14T13:26:28.326Z,11.95
2022-10-14T13:29:23.810Z,8.43
2022-10-14T13:32:01.511Z,7.70
2022-10-14T13:35:03.884Z,15.38
2022-10-14T13:37:33.731Z,6.75
2022-10-14T13:40:26.256Z,6.10
2022-10-14T13:42:59.958Z,8.70
2022-10-14T13:45:37.072Z,6.53
2022-10-14T13:48:09.307Z,5.28
2022-10-14T13:50:38.069Z,5.95
2022-10-14T13:53:10.353Z,5.57
2022-10-14T13:55:53.839Z,5.05
2022-10-14T13:58:25.161Z,6.47
2022-10-14T14:00:58.020Z,5.32
2022-10-14T14:03:39.937Z,4.38
2022-10-14T14:06:12.992Z,5.10
2022-10-14T14:08:48.629Z,4.20
2022-10-14T14:11:28.005Z,4.15
2022-10-14T14:14:01.075Z,4.63
2022-10-14T14:16:37.543Z,3.83
2022-10-14T14:19:08.753Z,4.30
2022-10-14T14:21:35.582Z,3.20
2022-10-14T14:24:16.515Z,3.80
2022-10-14T14:26:48.127Z,3.22
2022-10-14T14:29:18.623Z,4.68
2022-10-14T14:34:35.859Z,3.13
2022-10-14T14:37:23.522Z,3.10
2022-10-14T14:40:02.781Z,5.95
2022-10-14T14:42:35.897Z,2.00
2022-10-14T14:45:20.475Z,3.00
2022-10-14T14:47:51.295Z,3.92
2022-10-14T14:50:31.684Z,2.42
2022-10-14T14:53:03.802Z,1.95
2022-10-14T14:55:40.386Z,2.08
2022-10-14T14:58:23.018Z,2.47
2022-10-14T15:00:51.507Z,2.45
2022-10-14T15:03:18.131Z,1.98
2022-10-14T15:05:58.593Z,9.07
2022-10-14T15:08:29.376Z,2.47
2022-10-14T15:10:57.851Z,3.03
2022-10-14T15:13:39.525Z,3.00
2022-10-14T15:16:06.877Z,2.30
2022-10-14T15:18:34.622Z,3.75
2022-10-14T15:21:11.227Z,2.33
2022-10-14T15:23:43.606Z,3.95
2022-10-14T15:26:28.444Z,2.50
2022-10-14T15:29:10.241Z,2.88
2022-10-14T15:31:38.711Z,2.03
2022-10-14T15:34:06.300Z,2.63
2022-10-14T15:36:34.341Z,5.63
2022-10-14T15:39:02.335Z,10.23
2022-10-14T15:41:29.197Z,3.55
2022-10-14T15:43:55.770Z,2.95
2022-10-14T15:46:41.400Z,3.00
2022-10-14T15:49:16.493Z,3.90
2022-10-14T15:51:42.904Z,3.00
2022-10-14T15:54:11.650Z,4.82
2022-10-14T15:56:39.330Z,2.63
2022-10-14T15:59:05.930Z,2.85
2022-10-14T16:01:35.776Z,2.38
2022-10-14T16:04:03.725Z,3.45
2022-10-14T16:06:30.981Z,3.60
2022-10-14T16:08:57.415Z,2.22
2022-10-14T16:11:30.895Z,2.67
2022-10-14T16:13:57.330Z,2.13
2022-10-14T16:16:30.359Z,2.50
2022-10-14T16:18:56.711Z,2.70
2022-10-14T16:21:23.080Z,2.65
2022-10-14T16:23:52.314Z,3.05
2022-10-14T16:26:18.682Z,2.80
2022-10-14T16:28:45.279Z,3.42
2022-10-14T16:31:14.710Z,3.78
2022-10-14T16:33:44.767Z,3.92
2022-10-14T16:36:14.858Z,3.60
2022-10-14T16:38:41.318Z,3.72
2022-10-14T16:41:09.909Z,3.53
2022-10-14T16:43:37.202Z,4.80
2022-10-14T16:46:04.656Z,3.60
2022-10-14T16:48:33.126Z,3.80
2022-10-14T16:50:59.522Z,6.03
2022-10-14T16:53:40.496Z,3.53
2022-10-14T16:56:36.706Z,3.20
2022-10-14T16:59:03.654Z,2.95
2022-10-14T17:01:31.074Z,4.20
2022-10-14T17:03:58.007Z,2.90
2022-10-14T17:06:26.047Z,3.22
2022-10-14T17:08:53.250Z,4.03
2022-10-14T17:11:19.939Z,4.50
2022-10-14T17:13:46.779Z,2.92
2022-10-14T17:16:13.172Z,3.20
2022-10-14T17:18:42.910Z,4.00
2022-10-14T17:21:13.606Z,5.18
2022-10-14T17:23:42.254Z,3.28
2022-10-14T17:26:14.180Z,4.18
2022-10-14T17:28:42.146Z,4.00
2022-10-14T17:31:11.570Z,3.50
2022-10-14T17:33:38.885Z,2.22
2022-10-14T17:36:06.644Z,3.03
2022-10-14T17:38:35.078Z,2.55
2022-10-14T17:41:06.655Z,3.03
2022-10-14T17:43:36.794Z,3.17
2022-10-14T17:46:10.180Z,4.55
2022-10-14T17:48:37.730Z,5.85
2022-10-14T17:51:04.315Z,3.10
2022-10-14T17:53:30.730Z,6.53
2022-10-14T17:56:03.048Z,4.70
2022-10-14T17:58:29.446Z,5.32
2022-10-14T18:01:15.639Z,4.47
2022-10-14T18:03:43.929Z,5.05
2022-10-14T18:06:13.397Z,4.45
2022-10-14T18:08:41.209Z,4.82
2022-10-14T18:11:11.119Z,3.85
2022-10-14T18:16:13.099Z,4.00
2022-10-14T18:18:40.632Z,2.70
2022-10-14T18:21:07.253Z,3.90
2022-10-14T18:23:35.890Z,7.20
2022-10-14T18:26:06.298Z,3.72
2022-10-14T18:28:37.423Z,3.00
2022-10-14T18:31:09.330Z,5.82
2022-10-14T18:33:38.334Z,3.55
2022-10-14T18:36:09.112Z,3.03
2022-10-14T18:38:36.554Z,2.50
2022-10-14T18:41:12.253Z,4.88
2022-10-14T18:43:39.056Z,2.50
2022-10-14T18:46:16.586Z,4.60
2022-10-14T18:48:46.662Z,7.10
2022-10-14T18:51:14.164Z,2.80
2022-10-14T18:53:43.477Z,2.85
2022-10-14T18:56:15.337Z,5.25
2022-10-14T18:58:43.047Z,2.83
2022-10-14T19:01:11.022Z,2.53
2022-10-14T19:03:39.914Z,4.45
2022-10-14T19:06:08.060Z,3.15
2022-10-14T19:08:36.924Z,4.80
2022-10-14T19:11:20.977Z,2.83
2022-10-14T19:13:52.810Z,2.90
2022-10-14T19:16:25.746Z,4.72
2022-10-14T19:18:57.279Z,4.88
2022-10-14T19:21:29.453Z,5.07
2022-10-14T19:23:57.955Z,3.63
2022-10-14T19:26:27.060Z,3.25
2022-10-14T19:28:53.976Z,3.80
2022-10-14T19:31:26.601Z,3.60
2022-10-14T19:33:54.197Z,2.72
2022-10-14T19:36:22.725Z,2.72
2022-10-14T19:38:54.753Z,3.00
2022-10-14T19:41:21.124Z,2.88
2022-10-14T19:43:47.510Z,3.33
2022-10-14T19:46:14.230Z,2.60
2022-10-14T19:48:41.073Z,3.03
2022-10-14T19:51:11.915Z,2.53
2022-10-14T19:53:38.911Z,1.95
2022-10-14T19:56:10.308Z,3.30
2022-10-14T19:58:40.898Z,1.50
2022-10-14T20:01:12.787Z,1.48
2022-10-14T20:03:40.103Z,1.70
2022-10-14T20:06:07.622Z,1.40
2022-10-14T20:08:34.605Z,4.03
2022-10-14T20:11:06.711Z,4.05
2022-10-14T20:13:33.691Z,2.42
2022-10-14T20:16:02.293Z,1.85
2022-10-14T20:18:29.683Z,2.47
2022-10-14T20:20:56.753Z,1.52
2022-10-14T20:23:24.646Z,2.53
2022-10-14T20:25:51.480Z,3.92
2022-10-14T20:28:20.780Z,1.75
2022-10-14T20:30:47.520Z,2.70
2022-10-14T20:33:14.151Z,5.03
2022-10-14T20:35:40.778Z,5.60
2022-10-14T20:38:07.170Z,3.00
2022-10-14T20:40:35.393Z,1.95
2022-10-14T20:43:02.442Z,2.20
2022-10-14T20:45:28.880Z,5.70
2022-10-14T20:47:55.355Z,2.60
2022-10-14T20:50:22.406Z,2.75
2022-10-14T20:52:49.001Z,4.97
2022-10-14T20:55:15.605Z,2.45
2022-10-14T20:57:41.975Z,3.75
2022-10-14T21:00:09.074Z,3.22
2022-10-14T21:02:35.638Z,2.53
2022-10-14T21:05:02.059Z,2.92
2022-10-14T21:07:28.426Z,2.70
2022-10-14T21:09:54.883Z,2.40
2022-10-14T21:12:21.605Z,3.53
2022-10-14T21:14:48.252Z,3.25
2022-10-14T21:17:14.762Z,3.20
2022-10-14T21:19:41.148Z,4.50
2022-10-14T21:22:08.954Z,3.65
2022-10-14T21:24:36.155Z,5.15
2022-10-14T21:27:02.586Z,3.80
2022-10-14T21:29:28.955Z,3.42
2022-10-14T21:31:55.319Z,3.78
2022-10-14T21:34:24.663Z,4.63
2022-10-14T21:36:51.221Z,2.53
2022-10-14T21:39:18.384Z,2.90
2022-10-14T21:41:45.871Z,2.63
2022-10-14T21:44:17.879Z,3.97
2022-10-14T21:46:44.336Z,3.67
2022-10-14T21:49:11.075Z,3.40
2022-10-14T21:51:37.696Z,2.47
2022-10-14T21:54:04.655Z,3.13
2022-10-14T21:56:31.468Z,2.50
2022-10-14T21:58:58.555Z,2.17
2022-10-14T22:01:27.518Z,5.30
2022-10-14T22:03:59.343Z,3.13
2022-10-14T22:06:27.039Z,2.35
2022-10-14T22:08:55.848Z,2.28
2022-10-14T22:11:25.706Z,3.78
2022-10-14T22:13:53.566Z,2.03
2022-10-14T22:16:20.471Z,2.28
2022-10-14T22:18:50.388Z,1.70
2022-10-14T22:21:19.799Z,2.20
2022-10-14T22:23:48.162Z,3.55
2022-10-14T22:26:16.849Z,2.08
2022-10-14T22:28:43.504Z,2.78
2022-10-14T22:31:12.222Z,2.00
2022-10-14T22:33:40.213Z,3.70
2022-10-14T22:36:12.394Z,2.58
2022-10-14T22:38:41.347Z,1.80
2022-10-14T22:41:09.333Z,4.25
2022-10-14T22:43:36.244Z,2.42
2022-10-14T22:46:08.343Z,2.25
2022-10-14T22:48:35.745Z,2.25
2022-10-14T22:51:08.224Z,1.83
2022-10-14T22:53:35.677Z,1.92
2022-10-14T22:56:02.979Z,1.88
2022-10-14T22:58:29.356Z,2.03
2022-10-14T23:00:55.993Z,1.70
2022-10-14T23:03:23.710Z,1.90
2022-10-14T23:05:50.161Z,1.95
2022-10-14T23:08:17.603Z,3.13
2022-10-14T23:10:44.347Z,2.30
2022-10-14T23:13:10.978Z,2.85
2022-10-14T23:15:37.437Z,3.90
2022-10-14T23:18:03.892Z,2.40
2022-10-14T23:20:33.304Z,3.83
2022-10-14T23:22:59.663Z,4.22
2022-10-14T23:25:26.114Z,2.42
2022-10-14T23:27:52.475Z,2.55
2022-10-14T23:30:19.052Z,2.47
2022-10-14T23:32:45.472Z,2.58
2022-10-14T23:35:12.270Z,6.07
2022-10-14T23:37:38.850Z,1.60
2022-10-14T23:40:05.871Z,4.15
2022-10-14T23:42:32.261Z,3.08
2022-10-14T23:44:58.613Z,3.45
2022-10-14T23:47:25.413Z,2.20
2022-10-14T23:49:52.145Z,2.00
2022-10-14T23:52:18.515Z,3.15
2022-10-14T23:54:45.005Z,2.60
2022-10-14T23:57:11.439Z,2.30
2022-10-14T23:59:37.830Z,6.70
